sensor_id;sensor_type;location;lat;lon;timestamp;P1;durP1;ratioP1;P2;durP2;ratioP2
16426;SDS011;8322;-33.900;151.170;2022-09-09T00:00:49;5.57;;;2.08;;
16426;SDS011;8322;-33.900;151.170;2022-09-09T00:03:25;4.65;;;1.88;;
16426;SDS011;8322;-33.900;151.170;2022-09-09T00:05:57;4.47;;;1.63;;
16426;SDS011;8322;-33.900;151.170;2022-09-09T00:08:31;6.93;;;1.90;;
16426;SDS011;8322;-33.900;151.170;2022-09-09T00:11:05;3.85;;;1.65;;
16426;SDS011;8322;-33.900;151.170;2022-09-09T00:13:37;3.83;;;2.00;;
16426;SDS011;8322;-33.900;151.170;2022-09-09T00:16:08;4.32;;;2.38;;
16426;SDS011;8322;-33.900;151.170;2022-09-09T00:18:46;4.15;;;1.90;;
16426;SDS011;8322;-33.900;151.170;2022-09-09T00:21:19;4.88;;;2.38;;
16426;SDS011;8322;-33.900;151.170;2022-09-09T00:23:53;3.60;;;2.20;;
16426;SDS011;8322;-33.900;151.170;2022-09-09T00:26:27;3.70;;;2.15;;
16426;SDS011;8322;-33.900;151.170;2022-09-09T00:29:00;3.45;;;2.40;;
16426;SDS011;8322;-33.900;151.170;2022-09-09T00:31:32;2.92;;;1.98;;
16426;SDS011;8322;-33.900;151.170;2022-09-09T00:34:08;2.67;;;1.70;;
16426;SDS011;8322;-33.900;151.170;2022-09-09T00:36:39;2.75;;;1.60;;
16426;SDS011;8322;-33.900;151.170;2022-09-09T00:39:12;4.57;;;1.92;;
16426;SDS011;8322;-33.900;151.170;2022-09-09T00:41:45;2.83;;;1.50;;
16426;SDS011;8322;-33.900;151.170;2022-09-09T00:44:19;3.08;;;1.40;;
16426;SDS011;8322;-33.900;151.170;2022-09-09T00:46:55;2.15;;;1.40;;
16426;SDS011;8322;-33.900;151.170;2022-09-09T00:49:30;1.40;;;1.20;;
16426;SDS011;8322;-33.900;151.170;2022-09-09T00:52:10;3.20;;;1.40;;
16426;SDS011;8322;-33.900;151.170;2022-09-09T00:54:46;2.00;;;1.10;;
16426;SDS011;8322;-33.900;151.170;2022-09-09T00:57:23;2.65;;;1.35;;
16426;SDS011;8322;-33.900;151.170;2022-09-09T00:59:57;4.00;;;1.50;;
16426;SDS011;8322;-33.900;151.170;2022-09-09T01:02:31;4.60;;;1.30;;
16426;SDS011;8322;-33.900;151.170;2022-09-09T01:05:07;3.17;;;1.35;;
16426;SDS011;8322;-33.900;151.170;2022-09-09T01:07:40;4.15;;;1.45;;
16426;SDS011;8322;-33.900;151.170;2022-09-09T01:10:15;2.42;;;1.20;;
16426;SDS011;8322;-33.900;151.170;2022-09-09T01:12:51;1.65;;;1.10;;
16426;SDS011;8322;-33.900;151.170;2022-09-09T01:15:26;2.92;;;1.50;;
16426;SDS011;8322;-33.900;151.170;2022-09-09T01:17:58;3.80;;;1.30;;
16426;SDS011;8322;-33.900;151.170;2022-09-09T01:20:31;2.35;;;1.23;;
16426;SDS011;8322;-33.900;151.170;2022-09-09T01:23:19;3.00;;;1.27;;
16426;SDS011;8322;-33.900;151.170;2022-09-09T01:26:08;3.25;;;1.08;;
16426;SDS011;8322;-33.900;151.170;2022-09-09T01:28:40;4.22;;;1.65;;
16426;SDS011;8322;-33.900;151.170;2022-09-09T01:31:11;3.20;;;1.52;;
16426;SDS011;8322;-33.900;151.170;2022-09-09T01:33:43;3.67;;;2.00;;
16426;SDS011;8322;-33.900;151.170;2022-09-09T01:36:13;2.38;;;1.33;;
16426;SDS011;8322;-33.900;151.170;2022-09-09T01:38:44;4.45;;;1.30;;
16426;SDS011;8322;-33.900;151.170;2022-09-09T01:41:16;4.88;;;1.45;;
16426;SDS011;8322;-33.900;151.170;2022-09-09T01:43:45;3.42;;;1.67;;
16426;SDS011;8322;-33.900;151.170;2022-09-09T01:46:15;2.28;;;1.05;;
16426;SDS011;8322;-33.900;151.170;2022-09-09T01:48:45;2.40;;;1.40;;
16426;SDS011;8322;-33.900;151.170;2022-09-09T01:51:15;3.05;;;1.35;;
16426;SDS011;8322;-33.900;151.170;2022-09-09T01:53:45;3.33;;;1.10;;
16426;SDS011;8322;-33.900;151.170;2022-09-09T01:56:21;2.40;;;1.08;;
16426;SDS011;8322;-33.900;151.170;2022-09-09T01:59:02;1.38;;;0.98;;
16426;SDS011;8322;-33.900;151.170;2022-09-09T02:01:35;1.58;;;1.25;;
16426;SDS011;8322;-33.900;151.170;2022-09-09T02:04:13;1.58;;;1.02;;
16426;SDS011;8322;-33.900;151.170;2022-09-09T02:06:45;2.95;;;1.05;;
16426;SDS011;8322;-33.900;151.170;2022-09-09T02:09:17;2.50;;;1.77;;
16426;SDS011;8322;-33.900;151.170;2022-09-09T02:11:50;3.20;;;1.15;;
16426;SDS011;8322;-33.900;151.170;2022-09-09T02:14:25;2.85;;;1.00;;
16426;SDS011;8322;-33.900;151.170;2022-09-09T02:16:56;3.35;;;1.10;;
16426;SDS011;8322;-33.900;151.170;2022-09-09T02:19:29;2.95;;;0.93;;
16426;SDS011;8322;-33.900;151.170;2022-09-09T02:22:01;2.80;;;1.60;;
16426;SDS011;8322;-33.900;151.170;2022-09-09T02:24:31;2.35;;;1.40;;
16426;SDS011;8322;-33.900;151.170;2022-09-09T02:27:05;1.63;;;0.90;;
16426;SDS011;8322;-33.900;151.170;2022-09-09T02:29:36;3.15;;;1.75;;
16426;SDS011;8322;-33.900;151.170;2022-09-09T02:32:07;1.85;;;1.00;;
16426;SDS011;8322;-33.900;151.170;2022-09-09T02:34:39;1.65;;;0.80;;
16426;SDS011;8322;-33.900;151.170;2022-09-09T02:37:09;1.08;;;1.02;;
16426;SDS011;8322;-33.900;151.170;2022-09-09T02:39:40;2.28;;;1.25;;
16426;SDS011;8322;-33.900;151.170;2022-09-09T02:42:12;3.80;;;2.20;;
16426;SDS011;8322;-33.900;151.170;2022-09-09T02:44:42;2.33;;;0.80;;
16426;SDS011;8322;-33.900;151.170;2022-09-09T02:47:22;2.83;;;1.58;;
16426;SDS011;8322;-33.900;151.170;2022-09-09T02:49:57;1.13;;;1.00;;
16426;SDS011;8322;-33.900;151.170;2022-09-09T02:52:32;1.42;;;1.15;;
16426;SDS011;8322;-33.900;151.170;2022-09-09T02:55:04;2.03;;;1.00;;
16426;SDS011;8322;-33.900;151.170;2022-09-09T02:57:36;3.60;;;1.98;;
16426;SDS011;8322;-33.900;151.170;2022-09-09T03:00:07;3.92;;;2.22;;
16426;SDS011;8322;-33.900;151.170;2022-09-09T03:02:38;1.08;;;0.98;;
16426;SDS011;8322;-33.900;151.170;2022-09-09T03:05:08;1.60;;;1.50;;
16426;SDS011;8322;-33.900;151.170;2022-09-09T03:07:39;0.80;;;0.80;;
16426;SDS011;8322;-33.900;151.170;2022-09-09T03:10:09;2.20;;;1.60;;
16426;SDS011;8322;-33.900;151.170;2022-09-09T03:12:40;3.97;;;3.10;;
16426;SDS011;8322;-33.900;151.170;2022-09-09T03:15:10;2.72;;;2.13;;
16426;SDS011;8322;-33.900;151.170;2022-09-09T03:17:40;6.40;;;4.40;;
16426;SDS011;8322;-33.900;151.170;2022-09-09T03:20:10;5.85;;;3.78;;
16426;SDS011;8322;-33.900;151.170;2022-09-09T03:22:40;4.03;;;2.10;;
16426;SDS011;8322;-33.900;151.170;2022-09-09T03:25:11;3.67;;;2.65;;
16426;SDS011;8322;-33.900;151.170;2022-09-09T03:27:42;3.05;;;1.88;;
16426;SDS011;8322;-33.900;151.170;2022-09-09T03:30:12;2.03;;;0.90;;
16426;SDS011;8322;-33.900;151.170;2022-09-09T03:32:42;3.05;;;2.70;;
16426;SDS011;8322;-33.900;151.170;2022-09-09T03:35:11;4.45;;;3.40;;
16426;SDS011;8322;-33.900;151.170;2022-09-09T03:37:41;5.88;;;3.05;;
16426;SDS011;8322;-33.900;151.170;2022-09-09T03:40:11;4.13;;;2.60;;
16426;SDS011;8322;-33.900;151.170;2022-09-09T03:42:43;3.05;;;2.38;;
16426;SDS011;8322;-33.900;151.170;2022-09-09T03:45:12;8.38;;;5.32;;
16426;SDS011;8322;-33.900;151.170;2022-09-09T03:47:43;5.20;;;3.90;;
16426;SDS011;8322;-33.900;151.170;2022-09-09T03:50:13;2.95;;;2.10;;
16426;SDS011;8322;-33.900;151.170;2022-09-09T03:52:42;2.67;;;1.95;;
16426;SDS011;8322;-33.900;151.170;2022-09-09T03:55:12;4.93;;;1.60;;
16426;SDS011;8322;-33.900;151.170;2022-09-09T03:57:44;4.90;;;2.30;;
16426;SDS011;8322;-33.900;151.170;2022-09-09T04:00:14;3.50;;;2.28;;
16426;SDS011;8322;-33.900;151.170;2022-09-09T04:02:43;6.68;;;2.50;;
16426;SDS011;8322;-33.900;151.170;2022-09-09T04:05:13;4.72;;;2.00;;
16426;SDS011;8322;-33.900;151.170;2022-09-09T04:07:43;5.07;;;1.77;;
16426;SDS011;8322;-33.900;151.170;2022-09-09T04:10:13;2.13;;;1.30;;
16426;SDS011;8322;-33.900;151.170;2022-09-09T04:12:45;2.80;;;1.25;;
16426;SDS011;8322;-33.900;151.170;2022-09-09T04:15:15;1.52;;;1.10;;
16426;SDS011;8322;-33.900;151.170;2022-09-09T04:17:45;2.53;;;1.00;;
16426;SDS011;8322;-33.900;151.170;2022-09-09T04:20:14;2.75;;;1.73;;
16426;SDS011;8322;-33.900;151.170;2022-09-09T04:22:45;1.77;;;1.10;;
16426;SDS011;8322;-33.900;151.170;2022-09-09T04:25:15;2.03;;;1.00;;
16426;SDS011;8322;-33.900;151.170;2022-09-09T04:27:46;3.47;;;1.30;;
16426;SDS011;8322;-33.900;151.170;2022-09-09T04:30:17;2.53;;;1.10;;
16426;SDS011;8322;-33.900;151.170;2022-09-09T04:32:47;1.30;;;1.20;;
16426;SDS011;8322;-33.900;151.170;2022-09-09T04:35:20;2.50;;;1.60;;
16426;SDS011;8322;-33.900;151.170;2022-09-09T04:37:50;5.30;;;1.88;;
16426;SDS011;8322;-33.900;151.170;2022-09-09T04:40:19;1.52;;;1.00;;
16426;SDS011;8322;-33.900;151.170;2022-09-09T04:42:51;3.20;;;1.08;;
16426;SDS011;8322;-33.900;151.170;2022-09-09T04:45:21;4.63;;;1.55;;
16426;SDS011;8322;-33.900;151.170;2022-09-09T04:47:52;1.85;;;1.27;;
16426;SDS011;8322;-33.900;151.170;2022-09-09T04:50:22;0.88;;;0.80;;
16426;SDS011;8322;-33.900;151.170;2022-09-09T04:52:51;1.80;;;1.10;;
16426;SDS011;8322;-33.900;151.170;2022-09-09T04:55:21;0.98;;;0.90;;
16426;SDS011;8322;-33.900;151.170;2022-09-09T04:57:53;1.58;;;1.05;;
16426;SDS011;8322;-33.900;151.170;2022-09-09T05:00:23;1.23;;;1.00;;
16426;SDS011;8322;-33.900;151.170;2022-09-09T05:02:53;2.15;;;1.30;;
16426;SDS011;8322;-33.900;151.170;2022-09-09T05:05:23;1.92;;;1.15;;
16426;SDS011;8322;-33.900;151.170;2022-09-09T05:07:54;1.85;;;0.90;;
16426;SDS011;8322;-33.900;151.170;2022-09-09T05:10:30;1.73;;;0.85;;
16426;SDS011;8322;-33.900;151.170;2022-09-09T05:13:01;0.82;;;0.70;;
16426;SDS011;8322;-33.900;151.170;2022-09-09T05:15:31;1.50;;;0.73;;
16426;SDS011;8322;-33.900;151.170;2022-09-09T05:18:02;0.90;;;0.88;;
16426;SDS011;8322;-33.900;151.170;2022-09-09T05:20:32;1.05;;;0.80;;
16426;SDS011;8322;-33.900;151.170;2022-09-09T05:23:01;2.75;;;0.90;;
16426;SDS011;8322;-33.900;151.170;2022-09-09T05:25:31;1.02;;;0.70;;
16426;SDS011;8322;-33.900;151.170;2022-09-09T05:28:03;1.25;;;1.00;;
16426;SDS011;8322;-33.900;151.170;2022-09-09T05:30:33;1.77;;;1.08;;
16426;SDS011;8322;-33.900;151.170;2022-09-09T05:33:03;4.65;;;1.40;;
16426;SDS011;8322;-33.900;151.170;2022-09-09T05:35:33;7.50;;;2.00;;
16426;SDS011;8322;-33.900;151.170;2022-09-09T05:38:04;4.05;;;1.45;;
16426;SDS011;8322;-33.900;151.170;2022-09-09T05:40:34;7.82;;;3.20;;
16426;SDS011;8322;-33.900;151.170;2022-09-09T05:43:06;4.95;;;1.83;;
16426;SDS011;8322;-33.900;151.170;2022-09-09T05:45:35;8.45;;;2.45;;
16426;SDS011;8322;-33.900;151.170;2022-09-09T05:48:05;6.93;;;2.33;;
16426;SDS011;8322;-33.900;151.170;2022-09-09T05:50:35;11.77;;;4.00;;
16426;SDS011;8322;-33.900;151.170;2022-09-09T05:53:05;6.50;;;2.30;;
16426;SDS011;8322;-33.900;151.170;2022-09-09T05:55:35;6.28;;;2.03;;
16426;SDS011;8322;-33.900;151.170;2022-09-09T05:58:06;5.90;;;1.90;;
16426;SDS011;8322;-33.900;151.170;2022-09-09T06:00:36;5.65;;;2.30;;
16426;SDS011;8322;-33.900;151.170;2022-09-09T06:03:06;7.80;;;2.60;;
16426;SDS011;8322;-33.900;151.170;2022-09-09T06:05:35;2.40;;;1.00;;
16426;SDS011;8322;-33.900;151.170;2022-09-09T06:08:05;1.10;;;0.90;;
16426;SDS011;8322;-33.900;151.170;2022-09-09T06:10:35;2.20;;;1.90;;
16426;SDS011;8322;-33.900;151.170;2022-09-09T06:13:07;1.70;;;0.85;;
16426;SDS011;8322;-33.900;151.170;2022-09-09T06:15:37;1.10;;;1.00;;
16426;SDS011;8322;-33.900;151.170;2022-09-09T06:18:06;1.05;;;0.70;;
16426;SDS011;8322;-33.900;151.170;2022-09-09T06:20:36;2.45;;;1.17;;
16426;SDS011;8322;-33.900;151.170;2022-09-09T06:23:06;1.30;;;0.77;;
16426;SDS011;8322;-33.900;151.170;2022-09-09T06:25:35;1.73;;;0.80;;
16426;SDS011;8322;-33.900;151.170;2022-09-09T06:28:08;2.42;;;0.95;;
16426;SDS011;8322;-33.900;151.170;2022-09-09T06:30:38;2.92;;;1.02;;
16426;SDS011;8322;-33.900;151.170;2022-09-09T06:33:08;2.75;;;1.48;;
16426;SDS011;8322;-33.900;151.170;2022-09-09T06:35:37;1.75;;;1.10;;
16426;SDS011;8322;-33.900;151.170;2022-09-09T06:38:07;2.72;;;1.40;;
16426;SDS011;8322;-33.900;151.170;2022-09-09T06:40:37;1.88;;;1.10;;
16426;SDS011;8322;-33.900;151.170;2022-09-09T06:43:08;1.58;;;1.02;;
16426;SDS011;8322;-33.900;151.170;2022-09-09T06:45:38;1.23;;;1.00;;
16426;SDS011;8322;-33.900;151.170;2022-09-09T06:48:08;1.33;;;1.20;;
16426;SDS011;8322;-33.900;151.170;2022-09-09T06:50:37;3.22;;;1.55;;
16426;SDS011;8322;-33.900;151.170;2022-09-09T06:53:07;5.40;;;2.10;;
16426;SDS011;8322;-33.900;151.170;2022-09-09T06:55:37;3.88;;;1.67;;
16426;SDS011;8322;-33.900;151.170;2022-09-09T06:58:12;5.00;;;2.78;;
16426;SDS011;8322;-33.900;151.170;2022-09-09T07:00:41;7.60;;;2.90;;
16426;SDS011;8322;-33.900;151.170;2022-09-09T07:03:11;6.18;;;3.00;;
16426;SDS011;8322;-33.900;151.170;2022-09-09T07:05:41;8.65;;;3.58;;
16426;SDS011;8322;-33.900;151.170;2022-09-09T07:08:11;12.98;;;5.03;;
16426;SDS011;8322;-33.900;151.170;2022-09-09T07:10:43;18.52;;;4.60;;
16426;SDS011;8322;-33.900;151.170;2022-09-09T07:13:15;7.43;;;3.63;;
16426;SDS011;8322;-33.900;151.170;2022-09-09T07:15:47;13.63;;;4.70;;
16426;SDS011;8322;-33.900;151.170;2022-09-09T07:18:16;12.15;;;3.75;;
16426;SDS011;8322;-33.900;151.170;2022-09-09T07:20:52;10.85;;;4.60;;
16426;SDS011;8322;-33.900;151.170;2022-09-09T07:23:23;11.38;;;3.90;;
16426;SDS011;8322;-33.900;151.170;2022-09-09T07:25:53;8.02;;;3.53;;
16426;SDS011;8322;-33.900;151.170;2022-09-09T07:28:28;12.20;;;5.50;;
16426;SDS011;8322;-33.900;151.170;2022-09-09T07:30:59;18.88;;;6.38;;
16426;SDS011;8322;-33.900;151.170;2022-09-09T07:33:29;12.02;;;5.13;;
16426;SDS011;8322;-33.900;151.170;2022-09-09T07:36:03;14.05;;;5.40;;
16426;SDS011;8322;-33.900;151.170;2022-09-09T07:38:36;16.50;;;6.13;;
16426;SDS011;8322;-33.900;151.170;2022-09-09T07:41:07;18.88;;;9.00;;
16426;SDS011;8322;-33.900;151.170;2022-09-09T07:43:40;19.95;;;7.95;;
16426;SDS011;8322;-33.900;151.170;2022-09-09T07:46:10;13.80;;;6.88;;
16426;SDS011;8322;-33.900;151.170;2022-09-09T07:48:44;14.40;;;7.57;;
16426;SDS011;8322;-33.900;151.170;2022-09-09T07:51:17;16.40;;;7.20;;
16426;SDS011;8322;-33.900;151.170;2022-09-09T07:53:48;18.08;;;10.65;;
16426;SDS011;8322;-33.900;151.170;2022-09-09T07:56:20;21.02;;;10.98;;
16426;SDS011;8322;-33.900;151.170;2022-09-09T07:58:52;21.95;;;13.10;;
16426;SDS011;8322;-33.900;151.170;2022-09-09T08:01:23;33.08;;;17.98;;
16426;SDS011;8322;-33.900;151.170;2022-09-09T08:03:54;17.65;;;6.50;;
16426;SDS011;8322;-33.900;151.170;2022-09-09T08:06:25;17.77;;;9.40;;
16426;SDS011;8322;-33.900;151.170;2022-09-09T08:08:55;22.10;;;9.07;;
16426;SDS011;8322;-33.900;151.170;2022-09-09T08:11:25;29.60;;;11.45;;
16426;SDS011;8322;-33.900;151.170;2022-09-09T08:13:57;13.00;;;5.40;;
16426;SDS011;8322;-33.900;151.170;2022-09-09T08:16:27;12.18;;;6.57;;
16426;SDS011;8322;-33.900;151.170;2022-09-09T08:18:58;13.43;;;6.72;;
16426;SDS011;8322;-33.900;151.170;2022-09-09T08:21:28;18.88;;;9.75;;
16426;SDS011;8322;-33.900;151.170;2022-09-09T08:23:59;21.88;;;10.07;;
16426;SDS011;8322;-33.900;151.170;2022-09-09T08:26:30;13.63;;;6.30;;
16426;SDS011;8322;-33.900;151.170;2022-09-09T08:29:02;11.80;;;4.60;;
16426;SDS011;8322;-33.900;151.170;2022-09-09T08:31:33;17.52;;;7.65;;
16426;SDS011;8322;-33.900;151.170;2022-09-09T08:34:03;17.30;;;7.45;;
16426;SDS011;8322;-33.900;151.170;2022-09-09T08:36:34;11.27;;;5.28;;
16426;SDS011;8322;-33.900;151.170;2022-09-09T08:39:05;11.75;;;4.80;;
16426;SDS011;8322;-33.900;151.170;2022-09-09T08:41:48;9.40;;;5.40;;
16426;SDS011;8322;-33.900;151.170;2022-09-09T08:44:25;11.63;;;4.88;;
16426;SDS011;8322;-33.900;151.170;2022-09-09T08:47:00;13.48;;;5.35;;
16426;SDS011;8322;-33.900;151.170;2022-09-09T08:49:38;9.45;;;4.70;;
16426;SDS011;8322;-33.900;151.170;2022-09-09T08:52:16;11.05;;;5.28;;
16426;SDS011;8322;-33.900;151.170;2022-09-09T08:54:47;12.18;;;4.50;;
16426;SDS011;8322;-33.900;151.170;2022-09-09T08:57:18;8.55;;;4.88;;
16426;SDS011;8322;-33.900;151.170;2022-09-09T08:59:54;9.13;;;5.25;;
16426;SDS011;8322;-33.900;151.170;2022-09-09T09:02:25;15.45;;;9.73;;
16426;SDS011;8322;-33.900;151.170;2022-09-09T09:05:00;28.38;;;20.02;;
16426;SDS011;8322;-33.900;151.170;2022-09-09T09:07:34;31.67;;;21.42;;
16426;SDS011;8322;-33.900;151.170;2022-09-09T09:10:10;53.92;;;35.17;;
16426;SDS011;8322;-33.900;151.170;2022-09-09T09:12:42;41.22;;;29.10;;
16426;SDS011;8322;-33.900;151.170;2022-09-09T09:15:17;44.08;;;29.38;;
16426;SDS011;8322;-33.900;151.170;2022-09-09T09:17:48;50.83;;;34.30;;
16426;SDS011;8322;-33.900;151.170;2022-09-09T09:20:18;36.33;;;22.17;;
16426;SDS011;8322;-33.900;151.170;2022-09-09T09:22:51;26.75;;;17.67;;
16426;SDS011;8322;-33.900;151.170;2022-09-09T09:25:22;32.22;;;18.98;;
16426;SDS011;8322;-33.900;151.170;2022-09-09T09:27:54;33.47;;;19.35;;
16426;SDS011;8322;-33.900;151.170;2022-09-09T09:30:29;20.00;;;12.90;;
16426;SDS011;8322;-33.900;151.170;2022-09-09T09:33:01;15.93;;;10.35;;
16426;SDS011;8322;-33.900;151.170;2022-09-09T09:35:31;22.55;;;14.65;;
16426;SDS011;8322;-33.900;151.170;2022-09-09T09:38:05;17.92;;;12.70;;
16426;SDS011;8322;-33.900;151.170;2022-09-09T09:40:47;8.95;;;5.40;;
16426;SDS011;8322;-33.900;151.170;2022-09-09T09:43:20;6.20;;;3.63;;
16426;SDS011;8322;-33.900;151.170;2022-09-09T09:45:53;10.90;;;6.88;;
16426;SDS011;8322;-33.900;151.170;2022-09-09T09:48:23;5.80;;;3.33;;
16426;SDS011;8322;-33.900;151.170;2022-09-09T09:50:54;16.35;;;9.60;;
16426;SDS011;8322;-33.900;151.170;2022-09-09T09:53:25;19.00;;;12.43;;
16426;SDS011;8322;-33.900;151.170;2022-09-09T09:55:56;5.20;;;3.28;;
16426;SDS011;8322;-33.900;151.170;2022-09-09T09:58:27;5.93;;;3.15;;
16426;SDS011;8322;-33.900;151.170;2022-09-09T10:01:01;4.50;;;2.70;;
16426;SDS011;8322;-33.900;151.170;2022-09-09T10:03:32;4.57;;;3.10;;
16426;SDS011;8322;-33.900;151.170;2022-09-09T10:06:06;4.25;;;2.97;;
16426;SDS011;8322;-33.900;151.170;2022-09-09T10:08:44;4.85;;;3.40;;
16426;SDS011;8322;-33.900;151.170;2022-09-09T10:11:21;9.43;;;5.47;;
16426;SDS011;8322;-33.900;151.170;2022-09-09T10:13:56;12.63;;;8.30;;
16426;SDS011;8322;-33.900;151.170;2022-09-09T10:16:37;10.98;;;7.43;;
16426;SDS011;8322;-33.900;151.170;2022-09-09T10:19:13;9.55;;;6.25;;
16426;SDS011;8322;-33.900;151.170;2022-09-09T10:21:57;13.32;;;8.15;;
16426;SDS011;8322;-33.900;151.170;2022-09-09T10:24:36;7.10;;;3.30;;
16426;SDS011;8322;-33.900;151.170;2022-09-09T10:27:11;5.45;;;3.20;;
16426;SDS011;8322;-33.900;151.170;2022-09-09T10:29:51;7.65;;;4.82;;
16426;SDS011;8322;-33.900;151.170;2022-09-09T10:32:32;13.27;;;6.80;;
16426;SDS011;8322;-33.900;151.170;2022-09-09T10:35:08;6.20;;;3.97;;
16426;SDS011;8322;-33.900;151.170;2022-09-09T10:37:42;7.07;;;4.95;;
16426;SDS011;8322;-33.900;151.170;2022-09-09T10:40:27;6.97;;;4.75;;
16426;SDS011;8322;-33.900;151.170;2022-09-09T10:43:07;4.53;;;2.90;;
16426;SDS011;8322;-33.900;151.170;2022-09-09T10:45:40;2.55;;;2.22;;
16426;SDS011;8322;-33.900;151.170;2022-09-09T10:48:22;7.25;;;3.80;;
16426;SDS011;8322;-33.900;151.170;2022-09-09T10:50:58;4.15;;;2.42;;
16426;SDS011;8322;-33.900;151.170;2022-09-09T10:53:40;3.58;;;2.55;;
16426;SDS011;8322;-33.900;151.170;2022-09-09T10:56:13;3.65;;;2.47;;
16426;SDS011;8322;-33.900;151.170;2022-09-09T10:58:46;4.47;;;3.33;;
16426;SDS011;8322;-33.900;151.170;2022-09-09T11:01:18;7.75;;;5.13;;
16426;SDS011;8322;-33.900;151.170;2022-09-09T11:03:52;29.77;;;20.40;;
16426;SDS011;8322;-33.900;151.170;2022-09-09T11:06:25;33.25;;;20.20;;
16426;SDS011;8322;-33.900;151.170;2022-09-09T11:08:57;23.85;;;14.02;;
16426;SDS011;8322;-33.900;151.170;2022-09-09T11:11:27;11.90;;;7.53;;
16426;SDS011;8322;-33.900;151.170;2022-09-09T11:14:00;9.98;;;5.18;;
16426;SDS011;8322;-33.900;151.170;2022-09-09T11:16:33;4.60;;;3.38;;
16426;SDS011;8322;-33.900;151.170;2022-09-09T11:19:09;5.13;;;3.25;;
16426;SDS011;8322;-33.900;151.170;2022-09-09T11:21:41;2.83;;;2.38;;
16426;SDS011;8322;-33.900;151.170;2022-09-09T11:24:13;3.28;;;2.13;;
16426;SDS011;8322;-33.900;151.170;2022-09-09T11:26:46;5.47;;;2.35;;
16426;SDS011;8322;-33.900;151.170;2022-09-09T11:29:25;3.83;;;3.10;;
16426;SDS011;8322;-33.900;151.170;2022-09-09T11:32:06;4.22;;;3.10;;
16426;SDS011;8322;-33.900;151.170;2022-09-09T11:34:42;9.00;;;3.97;;
16426;SDS011;8322;-33.900;151.170;2022-09-09T11:37:29;7.30;;;3.67;;
16426;SDS011;8322;-33.900;151.170;2022-09-09T11:40:20;3.80;;;2.55;;
16426;SDS011;8322;-33.900;151.170;2022-09-09T11:43:01;2.33;;;1.80;;
16426;SDS011;8322;-33.900;151.170;2022-09-09T11:45:32;2.45;;;1.70;;
16426;SDS011;8322;-33.900;151.170;2022-09-09T11:48:03;1.98;;;1.67;;
16426;SDS011;8322;-33.900;151.170;2022-09-09T11:50:36;1.98;;;1.20;;
16426;SDS011;8322;-33.900;151.170;2022-09-09T11:53:18;1.58;;;1.33;;
16426;SDS011;8322;-33.900;151.170;2022-09-09T11:56:04;1.80;;;1.38;;
16426;SDS011;8322;-33.900;151.170;2022-09-09T11:58:36;2.55;;;1.30;;
16426;SDS011;8322;-33.900;151.170;2022-09-09T12:01:13;1.73;;;1.50;;
16426;SDS011;8322;-33.900;151.170;2022-09-09T12:03:43;3.13;;;1.20;;
16426;SDS011;8322;-33.900;151.170;2022-09-09T12:06:17;1.55;;;1.30;;
16426;SDS011;8322;-33.900;151.170;2022-09-09T12:08:48;2.97;;;1.65;;
16426;SDS011;8322;-33.900;151.170;2022-09-09T12:11:24;2.45;;;1.50;;
16426;SDS011;8322;-33.900;151.170;2022-09-09T12:13:54;1.52;;;1.40;;
16426;SDS011;8322;-33.900;151.170;2022-09-09T12:16:31;1.33;;;1.23;;
16426;SDS011;8322;-33.900;151.170;2022-09-09T12:19:05;1.70;;;1.20;;
16426;SDS011;8322;-33.900;151.170;2022-09-09T12:21:39;1.38;;;1.10;;
16426;SDS011;8322;-33.900;151.170;2022-09-09T12:24:11;2.65;;;1.35;;
16426;SDS011;8322;-33.900;151.170;2022-09-09T12:26:41;1.60;;;1.30;;
16426;SDS011;8322;-33.900;151.170;2022-09-09T12:29:15;2.03;;;1.08;;
16426;SDS011;8322;-33.900;151.170;2022-09-09T12:31:50;1.10;;;1.00;;
16426;SDS011;8322;-33.900;151.170;2022-09-09T12:34:25;2.22;;;1.20;;
16426;SDS011;8322;-33.900;151.170;2022-09-09T12:37:00;1.83;;;1.38;;
16426;SDS011;8322;-33.900;151.170;2022-09-09T12:39:32;2.53;;;1.30;;
16426;SDS011;8322;-33.900;151.170;2022-09-09T12:42:04;2.05;;;1.30;;
16426;SDS011;8322;-33.900;151.170;2022-09-09T12:44:33;1.83;;;1.33;;
16426;SDS011;8322;-33.900;151.170;2022-09-09T12:47:03;1.73;;;1.30;;
16426;SDS011;8322;-33.900;151.170;2022-09-09T12:49:33;1.80;;;1.30;;
16426;SDS011;8322;-33.900;151.170;2022-09-09T12:52:07;1.67;;;1.20;;
16426;SDS011;8322;-33.900;151.170;2022-09-09T12:54:37;1.70;;;1.00;;
16426;SDS011;8322;-33.900;151.170;2022-09-09T12:57:09;2.15;;;1.00;;
16426;SDS011;8322;-33.900;151.170;2022-09-09T12:59:41;1.20;;;1.00;;
16426;SDS011;8322;-33.900;151.170;2022-09-09T13:02:16;0.80;;;0.80;;
16426;SDS011;8322;-33.900;151.170;2022-09-09T13:04:47;1.10;;;1.00;;
16426;SDS011;8322;-33.900;151.170;2022-09-09T13:07:19;1.08;;;0.90;;
16426;SDS011;8322;-33.900;151.170;2022-09-09T13:09:50;1.05;;;0.90;;
16426;SDS011;8322;-33.900;151.170;2022-09-09T13:12:21;2.05;;;0.90;;
16426;SDS011;8322;-33.900;151.170;2022-09-09T13:14:51;1.67;;;0.88;;
16426;SDS011;8322;-33.900;151.170;2022-09-09T13:17:23;1.27;;;0.85;;
16426;SDS011;8322;-33.900;151.170;2022-09-09T13:19:54;1.45;;;0.80;;
16426;SDS011;8322;-33.900;151.170;2022-09-09T13:22:29;1.15;;;0.80;;
16426;SDS011;8322;-33.900;151.170;2022-09-09T13:25:01;1.05;;;0.95;;
16426;SDS011;8322;-33.900;151.170;2022-09-09T13:27:31;0.93;;;0.70;;
16426;SDS011;8322;-33.900;151.170;2022-09-09T13:30:19;1.40;;;0.60;;
16426;SDS011;8322;-33.900;151.170;2022-09-09T13:33:00;0.68;;;0.68;;
16426;SDS011;8322;-33.900;151.170;2022-09-09T13:35:30;0.60;;;0.60;;
16426;SDS011;8322;-33.900;151.170;2022-09-09T13:38:08;0.50;;;0.43;;
16426;SDS011;8322;-33.900;151.170;2022-09-09T13:40:38;0.50;;;0.50;;
16426;SDS011;8322;-33.900;151.170;2022-09-09T13:43:21;0.63;;;0.60;;
16426;SDS011;8322;-33.900;151.170;2022-09-09T13:45:55;0.90;;;0.52;;
16426;SDS011;8322;-33.900;151.170;2022-09-09T13:48:25;0.50;;;0.50;;
16426;SDS011;8322;-33.900;151.170;2022-09-09T13:50:57;0.60;;;0.60;;
16426;SDS011;8322;-33.900;151.170;2022-09-09T13:53:28;8.82;;;8.23;;
16426;SDS011;8322;-33.900;151.170;2022-09-09T13:55:58;2.10;;;1.88;;
16426;SDS011;8322;-33.900;151.170;2022-09-09T13:58:28;0.60;;;0.60;;
16426;SDS011;8322;-33.900;151.170;2022-09-09T14:00:58;0.50;;;0.50;;
16426;SDS011;8322;-33.900;151.170;2022-09-09T14:03:28;2.10;;;0.60;;
16426;SDS011;8322;-33.900;151.170;2022-09-09T14:05:57;0.50;;;0.50;;
16426;SDS011;8322;-33.900;151.170;2022-09-09T14:08:29;0.50;;;0.50;;
16426;SDS011;8322;-33.900;151.170;2022-09-09T14:11:03;0.60;;;0.60;;
16426;SDS011;8322;-33.900;151.170;2022-09-09T14:13:32;0.63;;;0.60;;
16426;SDS011;8322;-33.900;151.170;2022-09-09T14:16:03;1.30;;;0.70;;
16426;SDS011;8322;-33.900;151.170;2022-09-09T14:18:33;0.80;;;0.80;;
16426;SDS011;8322;-33.900;151.170;2022-09-09T14:21:03;1.00;;;0.52;;
16426;SDS011;8322;-33.900;151.170;2022-09-09T14:23:34;0.73;;;0.70;;
16426;SDS011;8322;-33.900;151.170;2022-09-09T14:26:04;0.60;;;0.60;;
16426;SDS011;8322;-33.900;151.170;2022-09-09T14:28:35;1.70;;;0.90;;
16426;SDS011;8322;-33.900;151.170;2022-09-09T14:31:06;0.68;;;0.68;;
16426;SDS011;8322;-33.900;151.170;2022-09-09T14:33:36;1.85;;;0.68;;
16426;SDS011;8322;-33.900;151.170;2022-09-09T14:36:06;0.60;;;0.60;;
16426;SDS011;8322;-33.900;151.170;2022-09-09T14:38:38;0.60;;;0.60;;
16426;SDS011;8322;-33.900;151.170;2022-09-09T14:41:09;0.50;;;0.47;;
16426;SDS011;8322;-33.900;151.170;2022-09-09T14:43:39;1.00;;;0.70;;
16426;SDS011;8322;-33.900;151.170;2022-09-09T14:46:09;0.60;;;0.60;;
16426;SDS011;8322;-33.900;151.170;2022-09-09T14:48:39;0.60;;;0.60;;